Flight Track Log - Related Links

Times and Time Zones

All times are in EDT time to prevent confusion due to time zone crossing. See the AAL259 flight status page for this flight to view local times or setup timezone preferences in your user account.

Time Position Orientation Groundspeed Altitude Reporting Facility
EDT Latitude Longitude Course Direction KTS MPH feet Rate Location/Type
Tue 11:06:07 AM 32.9167 -97.0500 309° West 191 220 1,200  Level Dallas / Fort Worth TRACON
Tue 11:06:49 AM 32.9500 -97.0500 360° North 210 242 2,500 2,167 Climbing Dallas / Fort Worth TRACON
Tue 11:07:55 AM 33.0333 -97.0500 360° North 241 277 5,100 2,250 Climbing Dallas / Fort Worth TRACON
Tue 11:08:49 AM 33.0833 -97.0833 331° Northwest 276 318 7,000 2,158 Climbing Dallas / Fort Worth TRACON
Tue 11:09:00 AM 32.8438 -97.3567 307° West  Level FlightAware Approximate
Tue 11:09:49 AM 33.0833 -97.1833 270° West 287 330 9,200  Level Dallas / Fort Worth TRACON
Tue 11:10:00 AM 32.9058 -97.4503 308° West  Level FlightAware Approximate
Tue 11:11:00 AM 32.9681 -97.5437 309° West  Level FlightAware Approximate
Tue 11:11:18 AM 33.0864 -97.3267 271° West 310 357 10,000  Level Fort Worth Center
Tue 11:12:20 AM 33.0861 -97.4475 270° West 339 390 10,600 1,065 Climbing Fort Worth Center
Tue 11:13:22 AM 33.0867 -97.5561 270° West 333 383 12,200 1,887 Climbing Fort Worth Center
Tue 11:14:24 AM 33.0900 -97.6869 272° West 367 422 14,500 2,177 Climbing Fort Worth Center
Tue 11:15:26 AM 33.1122 -97.8053 283° West 373 429 16,700 2,129 Climbing Fort Worth Center
Tue 11:16:28 AM 33.1531 -97.9311 291° West 374 430 18,900 1,839 Climbing Fort Worth Center
Tue 11:17:30 AM 33.1917 -98.0508 291° West 386 444 20,500 1,632 Climbing Fort Worth Center
Tue 11:18:33 AM 33.2333 -98.1822 291° West 390 449 22,300 1,440 Climbing Fort Worth Center
Tue 11:19:35 AM 33.2694 -98.2986 290° West 402 463 23,500 1,306 Climbing Fort Worth Center
Tue 11:20:37 AM 33.3144 -98.4475 290° West 420 483 25,000 1,355 Climbing Fort Worth Center
Tue 11:21:39 AM 33.3539 -98.5811 289° West 420 483 26,300 1,210 Climbing Fort Worth Center
Tue 11:22:41 AM 33.3956 -98.7150 290° West 425 489 27,500 1,113 Climbing Fort Worth Center
Tue 11:23:43 AM 33.4369 -98.8494 290° West 426 490 28,600 1,016 Climbing Fort Worth Center
Tue 11:24:45 AM 33.5003 -98.9683 303° West 435 501 29,600 968 Climbing Fort Worth Center
Tue 11:25:47 AM 33.5756 -99.0781 309° West 426 490 30,600 968 Climbing Fort Worth Center
Tue 11:26:49 AM 33.6486 -99.1908 308° West 426 490 31,600 624 Climbing Fort Worth Center
Tue 11:27:52 AM 33.7369 -99.3250 308° West 427 491 31,900 192 Climbing Fort Worth Center
Tue 11:28:54 AM 33.8081 -99.4372 307° West 427 491 32,000 48 Climbing Fort Worth Center
Tue 11:29:56 AM 33.8811 -99.5514 308° West 426 490 32,000  Level Fort Worth Center
Tue 11:30:58 AM 33.9519 -99.6617 308° West 426 490 32,000  Level Fort Worth Center
Tue 11:32:00 AM 34.0239 -99.7717 308° West 423 487 32,000  Level Fort Worth Center
Tue 11:33:02 AM 34.1081 -99.9064 307° West 422 486 32,000  Level Fort Worth Center
Tue 11:34:04 AM 34.1783 -100.0186 307° West 422 486 32,000  Level Fort Worth Center
Tue 11:35:06 AM 34.2486 -100.1275 308° West 418 481 32,000  Level Fort Worth Center
Tue 11:36:09 AM 34.3189 -100.2403 307° West 418 481 32,000  Level Fort Worth Center
Tue 11:37:11 AM 34.3928 -100.3611 307° West 419 482 32,000  Level Fort Worth Center
Tue 11:38:13 AM 34.4644 -100.4722 308° West 420 483 32,000  Level Fort Worth Center
Tue 11:39:15 AM 34.5347 -100.5847 307° West 419 482 32,000  Level Fort Worth Center
Tue 11:40:17 AM 34.6183 -100.7189 307° West 419 482 32,000  Level Fort Worth Center
Tue 11:41:19 AM 34.6872 -100.8339 306° West 419 482 32,000  Level Fort Worth Center
Tue 11:42:21 AM 34.7564 -100.9458 307° West 419 482 32,000  Level Fort Worth Center
Tue 11:43:23 AM 34.8258 -101.0608 306° West 419 482 32,000  Level Fort Worth Center
Tue 11:44:26 AM 34.8947 -101.1739 307° West 419 482 32,000  Level Fort Worth Center
Tue 11:45:28 AM 34.9636 -101.2886 306° West 419 482 32,000  Level Fort Worth Center
Tue 11:46:30 AM 35.0461 -101.4253 306° West 419 482 32,000  Level Fort Worth Center
Tue 11:47:32 AM 35.1156 -101.5403 306° West 418 481 32,000  Level Fort Worth Center
Tue 11:48:34 AM 35.1864 -101.6581 306° West 419 482 32,000  Level Fort Worth Center
Tue 11:49:36 AM 35.2594 -101.7808 306° West 423 487 32,000 48 Level Fort Worth Center
Tue 11:50:38 AM 35.3300 -101.8983 306° West 426 490 32,100  Climbing Fort Worth Center
Tue 11:51:40 AM 35.4003 -102.0153 306° West 425 489 32,000 -48 Descending Fort Worth Center
Tue 11:52:42 AM 35.4694 -102.1308 306° West 424 488 32,000  Level Fort Worth Center
Tue 11:53:45 AM 35.5386 -102.2478 306° West 424 488 32,000 42 Level Fort Worth Center
Tue 11:55:05 AM 35.6344 -102.4131 306° West 424 488 32,100  Climbing Albuquerque Center
Tue 11:56:08 AM 35.7033 -102.5294 306° West 424 488 32,000 -48 Descending Albuquerque Center
Tue 11:57:10 AM 35.7722 -102.6472 306° West 424 488 32,000  Level Albuquerque Center
Tue 11:58:12 AM 35.8539 -102.7875 306° West 424 488 32,000  Level Albuquerque Center
Tue 11:59:14 AM 35.9228 -102.9042 306° West 423 487 32,000  Level Albuquerque Center
Tue 12:00:16 PM 35.9942 -103.0267 306° West 423 487 32,000  Level Albuquerque Center
Tue 12:01:18 PM 36.0617 -103.1456 305° West 422 486 32,000 97 Level Albuquerque Center
Tue 12:02:20 PM 36.1314 -103.2647 306° West 422 486 32,200  Climbing Albuquerque Center
Tue 12:03:22 PM 36.1992 -103.3847 305° West 423 487 32,000  Descending Albuquerque Center
Tue 12:04:24 PM 36.2675 -103.5042 305° West 423 487 32,200  Climbing Albuquerque Center
Tue 12:05:26 PM 36.3478 -103.6433 306° West 423 487 32,000 -96 Descending Albuquerque Center
Tue 12:06:29 PM 36.4147 -103.7642 305° West 423 487 32,000  Level Albuquerque Center
Tue 12:07:31 PM 36.4822 -103.8836 305° West 423 487 32,000  Level Albuquerque Center
Tue 12:08:33 PM 36.5500 -104.0028 305° West 421 484 32,000  Level Albuquerque Center
Tue 12:09:35 PM 36.6164 -104.1206 305° West 419 482 32,000 48 Level Albuquerque Center
Tue 12:10:37 PM 36.6931 -104.2569 305° West 419 482 32,100 48 Climbing Albuquerque Center
Tue 12:11:39 PM 36.7567 -104.3694 305° West 418 481 32,100 -48 Level Albuquerque Center
Tue 12:12:41 PM 36.8200 -104.4836 305° West 417 480 32,000 -48 Descending Albuquerque Center
Tue 12:13:43 PM 36.8936 -104.6183 304° West 417 480 32,000  Level Albuquerque Center
Tue 12:14:15 PM 36.9256 -104.6772 304° West 419 482 32,000  Level Denver Center
Tue 12:15:17 PM 37.0008 -104.8117 305° West 420 483 32,000  Level Denver Center
Tue 12:16:19 PM 37.0631 -104.9272 304° West 419 482 32,000  Level Denver Center
Tue 12:17:21 PM 37.1367 -105.0617 305° West 419 482 32,000  Level Denver Center
Tue 12:18:23 PM 37.1992 -105.1764 304° West 418 481 32,000  Level Denver Center
Tue 12:19:25 PM 37.2625 -105.2925 304° West 416 479 32,000  Level Denver Center
Tue 12:20:28 PM 37.3311 -105.4200 304° West 419 482 32,000  Level Denver Center
Tue 12:21:30 PM 37.4042 -105.5564 304° West 421 484 32,000  Level Denver Center
Tue 12:22:32 PM 37.4667 -105.6733 304° West 421 484 32,000  Level Denver Center
Tue 12:23:34 PM 37.5389 -105.8103 304° West 421 484 32,000  Level Denver Center
Tue 12:24:36 PM 37.5869 -105.8972 305° West 420 483 32,000  Level Denver Center
Tue 12:25:38 PM 37.6694 -106.0539 304° West 420 483 32,000  Level Denver Center
Tue 12:26:40 PM 37.7361 -106.1800 304° West 419 482 32,000  Level Denver Center
Tue 12:27:42 PM 37.8081 -106.3181 303° West 420 483 32,000  Level Denver Center
Tue 12:28:44 PM 37.8781 -106.4469 305° West 421 484 32,000  Level Denver Center
Tue 12:29:46 PM 37.9364 -106.5628 303° West 421 484 32,000  Level Denver Center
Tue 12:30:48 PM 38.0092 -106.7028 303° West 424 488 32,000 387 Level Denver Center
Tue 12:31:50 PM 38.0708 -106.8203 304° West 422 486 32,800 768 Climbing Denver Center
Tue 12:32:53 PM 38.1303 -106.9372 303° West 420 483 33,600 576 Climbing Denver Center
Tue 12:33:55 PM 38.2072 -107.0872 303° West 417 480 34,000 194 Climbing Denver Center
Tue 12:34:57 PM 38.2714 -107.2119 303° West 414 476 34,000  Level Denver Center
Tue 12:35:59 PM 38.3311 -107.3308 303° West 414 476 34,000  Level Denver Center
Tue 12:37:01 PM 38.4019 -107.4692 303° West 415 478 34,000  Level Denver Center
Tue 12:38:03 PM 38.4608 -107.5917 302° West 418 481 34,000  Level Denver Center
Tue 12:39:05 PM 38.5214 -107.7108 303° West 419 482 34,000  Level Denver Center
Tue 12:40:07 PM 38.5914 -107.8492 303° West 417 480 34,000  Level Denver Center
Tue 12:41:09 PM 38.6519 -107.9686 303° West 417 480 34,000  Level Denver Center
Tue 12:42:11 PM 38.7111 -108.0881 302° West 416 479 34,000  Level Denver Center
Tue 12:43:13 PM 38.7708 -108.2078 303° West 416 479 34,000  Level Denver Center
Tue 12:44:15 PM 38.8503 -108.3675 303° West 415 478 34,000  Level Denver Center
Tue 12:45:17 PM 38.9092 -108.4875 302° West 415 478 34,000  Level Denver Center
Tue 12:46:20 PM 38.9778 -108.6275 302° West 414 476 34,000  Level Denver Center
Tue 12:47:22 PM 39.0367 -108.7486 302° West 414 476 34,000  Level Denver Center
Tue 12:48:24 PM 39.0989 -108.8928 299° West 414 476 34,000  Level Denver Center
Tue 12:49:26 PM 39.1506 -109.0189 298° West 413 475 34,000  Level Denver Center
Tue 12:50:28 PM 39.2011 -109.1453 297° West 413 475 34,000  Level Denver Center
Tue 12:51:09 PM 39.2431 -109.2481 298° West 413 475 34,000  Level Salt Lake Center
Tue 12:52:10 PM 39.2925 -109.3747 297° West 412 474 34,000  Level Salt Lake Center
Tue 12:53:12 PM 39.3517 -109.5225 297° West 413 475 34,000  Level Salt Lake Center
Tue 12:54:14 PM 39.4028 -109.6492 298° West 413 475 34,000 -146 Level Salt Lake Center
Tue 12:55:15 PM 39.4519 -109.7775 296° West 414 476 33,700 -732 Descending Salt Lake Center
Tue 12:56:17 PM 39.5122 -109.9269 298° West 418 481 32,500 -823 Descending Salt Lake Center
Tue 12:57:19 PM 39.5631 -110.0575 297° West 422 486 32,000 -244 Descending Salt Lake Center
Tue 12:58:20 PM 39.6228 -110.2092 297° West 422 486 32,000 -689 Level Salt Lake Center
Tue 12:59:21 PM 39.6728 -110.3392 297° West 422 486 30,600 -2,341 Descending Salt Lake Center
Tue 01:00:23 PM 39.7222 -110.4703 296° West 422 486 27,200 -2,903 Descending Salt Lake Center
Tue 01:01:25 PM 39.7808 -110.6247 296° West 424 488 24,600 -1,902 Descending Salt Lake Center
Tue 01:02:26 PM 39.8286 -110.7522 296° West 415 478 23,300 -1,366 Descending Salt Lake Center
Tue 01:03:28 PM 39.8817 -110.8886 297° West 381 438 21,800 -1,512 Descending Salt Lake Center
Tue 01:04:29 PM 39.9222 -111.0039 295° West 368 423 20,200 -1,317 Descending Salt Lake Center
Tue 01:05:31 PM 39.9722 -111.1336 297° West 363 418 19,100 -585 Descending Salt Lake Center
Tue 01:06:32 PM 40.0156 -111.2447 297° West 361 415 19,000 -49 Descending Salt Lake Center
Tue 01:07:34 PM 40.0556 -111.3528 296° West 364 419 19,000  Level Salt Lake Center
Tue 01:08:35 PM 40.1083 -111.4939 296° West 364 419 19,000  Level Salt Lake Center
Tue 01:08:49 PM 40.1158 -111.5300 285° West 362 417 19,000  Level Salt Lake Center
Tue 01:09:37 PM 40.1531 -111.6136 300° West 363 418 19,000  Level Salt Lake Center
Tue 01:09:56 PM 40.1656 -111.6592 290° West 364 419 19,000  Level Salt Lake Center
Tue 01:10:38 PM 40.1969 -111.7314 300° West 361 415 19,000  Level Salt Lake Center
Tue 01:10:51 PM 40.2039 -111.7639 286° West 363 418 19,000 -484 Level Salt Lake Center
Tue 01:11:40 PM 40.2492 -111.8447 306° West 367 422 18,500 -990 Descending Salt Lake Center
Tue 01:12:34 PM 40.3400 -111.9061 333° Northwest 384 442 17,300 -1,366 Descending Salt Lake Center
Tue 01:13:43 PM 40.4414 -111.9642 336° Northwest 379 436 15,700 -1,523 Descending Salt Lake Center
Tue 01:14:44 PM 40.5350 -112.0194 336° Northwest 369 425 14,000 -1,512 Descending Salt Lake Center
Tue 01:15:46 PM 40.6250 -112.0736 335° Northwest 356 410 12,600 -1,579 Descending Salt Lake Center
Tue 01:16:00 PM 40.6661 -112.0864 347° North 360 414 12,000 -1,180 Descending Salt Lake Center
Tue 01:16:47 PM 40.7250 -112.0903 357° North 358 412 11,400 -800 Descending Salt Lake Center
Tue 01:17:00 PM 40.7628 -112.0961 353° North 323 372 11,200 -590 Descending Salt Lake Center
Tue 01:17:48 PM 40.8242 -112.0989 358° North 271 312 10,800 -716 Descending Salt Lake Center
Tue 01:18:07 PM 40.8447 -112.0967 North 251 289 10,400 -1,452 Descending Salt Lake Center
Tue 01:18:50 PM 40.8919 -112.0817 14° North 247 284 9,300 -1,522 Descending Salt Lake Center
Tue 01:19:14 PM 40.9203 -112.0769 North 240 276 8,700 -1,770 Descending Salt Lake Center
Tue 01:19:51 PM 40.9411 -112.0372 55° Northeast 240 276 7,500 -1,800 Descending Salt Lake Center
Tue 01:20:14 PM 40.9447 -112.0033 82° East 219 252 6,900 -1,355 Descending Salt Lake Center
Tue 01:20:53 PM 40.9397 -111.9667 100° East 193 222 6,100 -982 Descending Salt Lake Center
Tue 01:21:09 PM 40.9278 -111.9608 160° South 158 182 6,000 -97 Descending Salt Lake Center
Tue 01:21:55 PM 40.8994 -111.9625 183° South 146 168 6,000 -336 Level Salt Lake Center
Tue 01:22:56 PM 40.8619 -111.9625 180° South 139 160 5,400 -634 Descending Salt Lake Center
Tue 01:23:58 PM 40.8236 -111.9625 180° South 139 160 4,700 -585 Descending Salt Lake Center
Tue 01:24:59 PM 40.7861 -111.9622 180° South 135 155 4,200 -492 Descending Salt Lake Center

Login

Don't have an account? Register now (free) for customized features, flight alerts, and more!